Time;durP1;ratioP1;P1;durP2;ratioP2;P2;SDS_P1;SDS_P2;PMS_P1;PMS_P2;Temp;Humidity;BMP_temperature;BMP_pressure;BME280_temperature;BME280_humidity;BME280_pressure;Samples;Min_cycle;Max_cycle;Signal;HPM_P1;HPM_P2
2022/05/26 00:00:57;;;;;;;0.90;0.50;;;;;;;;;;4969905;28;20039;-82
2022/05/26 00:03:22;;;;;;;1.00;0.60;;;;;;;;;;4992326;28;20045;-81
2022/05/26 00:05:47;;;;;;;1.50;0.70;;;;;;;;;;4978571;28;20110;-82
2022/05/26 00:08:13;;;;;;;1.83;0.90;;;;;;;;;;4992759;28;20446;-81
2022/05/26 00:10:38;;;;;;;1.55;0.60;;;;;;;;;;4985658;28;20084;-81
2022/05/26 00:13:05;;;;;;;0.80;0.50;;;;;;;;;;5001950;28;20034;-81
2022/05/26 00:15:31;;;;;;;4.10;0.73;;;;;;;;;;4992174;28;20029;-82
2022/05/26 00:17:57;;;;;;;1.13;0.50;;;;;;;;;;4993507;28;20062;-82
2022/05/26 00:20:22;;;;;;;1.60;0.85;;;;;;;;;;4991652;28;20607;-82
2022/05/26 00:22:47;;;;;;;0.88;0.50;;;;;;;;;;4977030;28;20042;-82
2022/05/26 00:25:12;;;;;;;0.95;0.43;;;;;;;;;;4980582;28;20026;-82
2022/05/26 00:27:38;;;;;;;0.70;0.25;;;;;;;;;;4992046;28;20044;-82
2022/05/26 00:30:04;;;;;;;2.05;0.80;;;;;;;;;;4992529;28;20501;-82
2022/05/26 00:32:29;;;;;;;1.10;0.50;;;;;;;;;;4993029;28;20037;-82
2022/05/26 00:34:54;;;;;;;0.70;0.38;;;;;;;;;;4968247;28;20042;-82
2022/05/26 00:37:20;;;;;;;0.77;0.47;;;;;;;;;;4972723;28;20034;-82
2022/05/26 00:39:45;;;;;;;0.65;0.40;;;;;;;;;;4978946;28;20481;-82
2022/05/26 00:42:11;;;;;;;1.00;0.47;;;;;;;;;;4992870;28;20565;-82
2022/05/26 00:44:36;;;;;;;0.93;0.50;;;;;;;;;;4992134;28;20045;-82
2022/05/26 00:47:27;;;;;;;1.23;0.73;;;;;;;;;;4991553;28;20076;-82
2022/05/26 00:49:59;;;;;;;1.85;0.73;;;;;;;;;;4965250;28;20042;-82
2022/05/26 00:52:31;;;;;;;0.85;0.50;;;;;;;;;;4966255;28;20097;-82
2022/05/26 00:55:00;;;;;;;1.05;0.50;;;;;;;;;;4963680;28;20117;-81
2022/05/26 00:57:32;;;;;;;0.40;0.30;;;;;;;;;;4977949;28;20145;-82
2022/05/26 01:00:02;;;;;;;0.60;0.30;;;;;;;;;;4974400;28;20031;-82
2022/05/26 01:02:34;;;;;;;1.20;0.50;;;;;;;;;;4968438;28;20039;-82
2022/05/26 01:05:02;;;;;;;0.80;0.40;;;;;;;;;;4995941;28;20041;-82
2022/05/26 01:07:31;;;;;;;0.40;0.30;;;;;;;;;;4985378;28;20044;-81
2022/05/26 01:09:57;;;;;;;1.35;0.45;;;;;;;;;;4991538;28;20504;-82
2022/05/26 01:12:22;;;;;;;0.60;0.40;;;;;;;;;;4977305;28;20069;-83
2022/05/26 01:15:02;;;;;;;0.80;0.43;;;;;;;;;;4956355;28;20414;-82
2022/05/26 01:17:55;;;;;;;1.10;0.50;;;;;;;;;;4961560;28;20030;-82
2022/05/26 01:20:49;;;;;;;0.75;0.45;;;;;;;;;;5000497;28;20042;-82
2022/05/26 01:23:32;;;;;;;0.60;0.30;;;;;;;;;;5000736;28;20044;-82
2022/05/26 01:26:31;;;;;;;0.88;0.40;;;;;;;;;;4991940;28;20035;-82
2022/05/26 01:29:43;;;;;;;0.65;0.30;;;;;;;;;;5003381;28;20097;-82
2022/05/26 01:32:19;;;;;;;0.60;0.40;;;;;;;;;;4991892;28;20095;-82
2022/05/26 01:35:03;;;;;;;4.50;0.88;;;;;;;;;;4973551;28;20443;-83
2022/05/26 01:37:48;;;;;;;0.60;0.38;;;;;;;;;;4992602;28;20705;-82
2022/05/26 01:40:29;;;;;;;0.50;0.28;;;;;;;;;;4998950;28;20035;-82
2022/05/26 01:43:03;;;;;;;0.98;0.50;;;;;;;;;;4985430;28;20808;-82
2022/05/26 01:45:34;;;;;;;0.60;0.40;;;;;;;;;;4983860;28;20538;-82
2022/05/26 01:48:13;;;;;;;0.93;0.40;;;;;;;;;;5008551;28;20038;-82
2022/05/26 01:50:46;;;;;;;0.60;0.30;;;;;;;;;;4990986;28;20061;-82
2022/05/26 01:53:24;;;;;;;0.68;0.30;;;;;;;;;;4979987;28;20037;-82
2022/05/26 01:56:33;;;;;;;0.68;0.40;;;;;;;;;;4993119;28;20046;-83
2022/05/26 01:59:18;;;;;;;0.60;0.30;;;;;;;;;;4957526;28;20050;-83
2022/05/26 02:01:47;;;;;;;0.40;0.30;;;;;;;;;;4972697;28;20117;-83
2022/05/26 02:04:18;;;;;;;0.40;0.25;;;;;;;;;;4978414;28;20039;-83
2022/05/26 02:06:58;;;;;;;0.55;0.35;;;;;;;;;;4980489;28;20039;-82
2022/05/26 02:09:28;;;;;;;0.55;0.35;;;;;;;;;;4997901;28;20042;-82
2022/05/26 02:12:20;;;;;;;0.60;0.38;;;;;;;;;;4998330;28;20034;-83
2022/05/26 02:14:50;;;;;;;0.57;0.25;;;;;;;;;;4972534;28;20049;-83
2022/05/26 02:17:39;;;;;;;0.20;0.20;;;;;;;;;;4993979;28;20038;-82
2022/05/26 02:20:04;;;;;;;0.73;0.30;;;;;;;;;;4967638;28;20038;-82
2022/05/26 02:22:33;;;;;;;0.68;0.30;;;;;;;;;;5003095;28;20040;-82
2022/05/26 02:25:08;;;;;;;0.28;0.20;;;;;;;;;;4983068;28;20505;-82
2022/05/26 02:27:35;;;;;;;1.33;0.63;;;;;;;;;;5004357;28;20038;-82
2022/05/26 02:30:01;;;;;;;0.60;0.30;;;;;;;;;;4987379;28;20061;-82
2022/05/26 02:32:32;;;;;;;0.60;0.20;;;;;;;;;;4982392;28;20128;-83
2022/05/26 02:35:03;;;;;;;0.85;0.30;;;;;;;;;;4978113;28;20086;-83
2022/05/26 02:37:30;;;;;;;0.60;0.30;;;;;;;;;;4980013;28;20048;-82
2022/05/26 02:39:55;;;;;;;0.40;0.20;;;;;;;;;;5003942;28;20034;-82
2022/05/26 02:42:21;;;;;;;0.28;0.20;;;;;;;;;;4986711;28;20378;-82
2022/05/26 02:44:47;;;;;;;0.20;0.20;;;;;;;;;;4987268;28;20058;-83
2022/05/26 02:47:15;;;;;;;0.43;0.20;;;;;;;;;;4993516;28;20046;-82
2022/05/26 02:50:07;;;;;;;0.30;0.20;;;;;;;;;;5003705;28;20070;-83
2022/05/26 02:53:04;;;;;;;0.88;0.30;;;;;;;;;;4995363;28;20044;-82
2022/05/26 02:55:47;;;;;;;0.70;0.30;;;;;;;;;;4974167;28;20272;-82
2022/05/26 02:58:18;;;;;;;0.43;0.20;;;;;;;;;;4993787;28;20030;-82
2022/05/26 03:01:19;;;;;;;0.30;0.20;;;;;;;;;;5009710;28;20375;-82
2022/05/26 03:03:56;;;;;;;0.45;0.28;;;;;;;;;;4988297;28;20129;-83
2022/05/26 03:06:26;;;;;;;;;;;;;;;;;;4993596;28;20481;-82
2022/05/26 03:08:53;;;;;;;0.50;0.20;;;;;;;;;;4980615;28;19921;-81
2022/05/26 03:11:23;;;;;;;0.35;0.20;;;;;;;;;;4996523;28;20046;-82
2022/05/26 03:13:50;;;;;;;1.13;0.30;;;;;;;;;;4990928;28;20046;-82
2022/05/26 03:16:16;;;;;;;0.50;0.30;;;;;;;;;;4992369;28;20174;-82
2022/05/26 03:18:41;;;;;;;0.73;0.40;;;;;;;;;;4986435;28;20031;-82
2022/05/26 03:21:07;;;;;;;0.38;0.20;;;;;;;;;;4979331;28;20038;-83
2022/05/26 03:23:33;;;;;;;0.55;0.30;;;;;;;;;;4982451;28;20044;-82
2022/05/26 03:26:00;;;;;;;1.40;0.28;;;;;;;;;;4983813;28;20038;-81
2022/05/26 03:28:26;;;;;;;;;;;;;;;;;;4995170;28;20393;-83
2022/05/26 03:30:52;;;;;;;0.20;0.13;;;;;;;;;;4995367;28;19917;-82
2022/05/26 03:33:17;;;;;;;0.98;0.40;;;;;;;;;;4996769;28;20042;-83
2022/05/26 03:41:12;;;;;;;0.75;0.40;;;;;;;;;;4993915;28;20069;-84
2022/05/26 03:43:43;;;;;;;1.50;0.20;;;;;;;;;;4992311;28;20069;-83
2022/05/26 03:46:09;;;;;;;0.80;0.50;;;;;;;;;;4995766;28;20041;-81
2022/05/26 03:48:35;;;;;;;0.50;0.22;;;;;;;;;;4977108;28;20034;-82
2022/05/26 03:51:00;;;;;;;0.60;0.30;;;;;;;;;;4993525;28;20429;-82
2022/05/26 03:53:25;;;;;;;0.50;0.30;;;;;;;;;;4986581;28;20050;-82
2022/05/26 03:55:51;;;;;;;0.22;0.20;;;;;;;;;;4976243;28;20034;-82
2022/05/26 03:58:17;;;;;;;0.57;0.30;;;;;;;;;;4982798;28;20034;-83
2022/05/26 04:00:43;;;;;;;0.70;0.40;;;;;;;;;;4978837;28;20088;-83
2022/05/26 04:03:08;;;;;;;2.83;0.77;;;;;;;;;;4979847;28;20037;-83
2022/05/26 04:05:34;;;;;;;1.00;0.38;;;;;;;;;;4977457;28;20077;-83
2022/05/26 04:07:59;;;;;;;0.60;0.20;;;;;;;;;;4986537;28;20030;-83
2022/05/26 04:10:25;;;;;;;2.50;0.30;;;;;;;;;;4993095;28;20042;-83
2022/05/26 04:12:50;;;;;;;0.40;0.20;;;;;;;;;;4986433;28;20030;-83
2022/05/26 04:15:16;;;;;;;0.45;0.20;;;;;;;;;;4979467;28;20050;-83
2022/05/26 04:17:42;;;;;;;0.77;0.30;;;;;;;;;;4979035;28;20030;-82
2022/05/26 04:20:10;;;;;;;0.50;0.30;;;;;;;;;;4979218;28;20510;-82
2022/05/26 04:22:35;;;;;;;0.82;0.43;;;;;;;;;;4986050;28;20038;-82
2022/05/26 04:25:01;;;;;;;0.20;0.20;;;;;;;;;;4990705;28;20065;-82
2022/05/26 04:27:29;;;;;;;0.70;0.32;;;;;;;;;;4985835;28;20064;-82
2022/05/26 04:29:55;;;;;;;0.90;0.35;;;;;;;;;;4953881;28;20506;-82
2022/05/26 04:32:21;;;;;;;0.70;0.30;;;;;;;;;;4983287;28;20040;-82
2022/05/26 04:34:48;;;;;;;0.75;0.30;;;;;;;;;;4964439;28;20039;-83
2022/05/26 04:37:14;;;;;;;0.57;0.35;;;;;;;;;;4982219;28;20041;-82
2022/05/26 04:39:40;;;;;;;2.63;0.50;;;;;;;;;;4996079;28;20060;-81
2022/05/26 04:42:06;;;;;;;0.50;0.20;;;;;;;;;;4990224;28;20058;-82
2022/05/26 04:44:34;;;;;;;2.40;0.70;;;;;;;;;;4973335;28;20421;-83
2022/05/26 04:47:00;;;;;;;0.77;0.40;;;;;;;;;;4989887;28;20113;-82
2022/05/26 04:49:25;;;;;;;0.50;0.20;;;;;;;;;;4972596;28;20575;-83
2022/05/26 04:51:50;;;;;;;0.85;0.38;;;;;;;;;;4974324;28;20497;-83
2022/05/26 04:54:18;;;;;;;3.35;0.60;;;;;;;;;;4975256;28;20042;-81
2022/05/26 04:56:44;;;;;;;0.30;0.20;;;;;;;;;;4982745;28;20080;-82
2022/05/26 04:59:09;;;;;;;0.40;0.30;;;;;;;;;;5001443;28;20030;-83
2022/05/26 05:01:34;;;;;;;0.85;0.30;;;;;;;;;;4978880;28;20045;-83
2022/05/26 05:04:00;;;;;;;0.90;0.40;;;;;;;;;;4983988;28;20041;-83
2022/05/26 05:06:25;;;;;;;0.75;0.35;;;;;;;;;;4970093;28;20031;-82
2022/05/26 05:08:51;;;;;;;0.68;0.30;;;;;;;;;;4959220;28;20042;-83
2022/05/26 05:11:16;;;;;;;1.15;0.38;;;;;;;;;;4975150;28;20526;-82
2022/05/26 05:13:41;;;;;;;1.52;0.65;;;;;;;;;;4991583;28;20041;-83
2022/05/26 05:16:27;;;;;;;0.50;0.30;;;;;;;;;;4978492;28;20038;-83
2022/05/26 05:18:52;;;;;;;0.88;0.40;;;;;;;;;;4981673;28;20564;-83
2022/05/26 05:21:25;;;;;;;0.85;0.40;;;;;;;;;;4977910;28;20165;-83
2022/05/26 05:23:59;;;;;;;0.95;0.50;;;;;;;;;;4991394;28;20561;-83
2022/05/26 05:26:25;;;;;;;0.90;0.40;;;;;;;;;;4984901;28;20053;-82
2022/05/26 05:29:00;;;;;;;0.77;0.40;;;;;;;;;;4984868;28;20129;-83
2022/05/26 05:31:33;;;;;;;0.98;0.40;;;;;;;;;;4969797;28;20464;-83
2022/05/26 05:34:20;;;;;;;0.45;0.20;;;;;;;;;;4978477;28;20070;-82
2022/05/26 05:36:46;;;;;;;1.00;0.40;;;;;;;;;;4994361;28;20501;-82
2022/05/26 05:39:11;;;;;;;0.75;0.40;;;;;;;;;;4989342;28;20034;-82
2022/05/26 05:41:37;;;;;;;1.80;0.73;;;;;;;;;;4993546;28;20042;-83
2022/05/26 05:44:03;;;;;;;1.38;0.65;;;;;;;;;;4982614;28;20054;-83
2022/05/26 05:46:53;;;;;;;0.63;0.30;;;;;;;;;;4981909;28;20488;-83
2022/05/26 05:49:19;;;;;;;0.80;0.40;;;;;;;;;;4971683;28;20069;-83
2022/05/26 05:51:44;;;;;;;0.85;0.50;;;;;;;;;;4987432;28;20046;-83
2022/05/26 05:54:09;;;;;;;1.05;0.40;;;;;;;;;;4988531;28;20042;-81
2022/05/26 05:56:35;;;;;;;0.82;0.50;;;;;;;;;;4988967;28;20062;-82
2022/05/26 05:59:00;;;;;;;0.60;0.30;;;;;;;;;;4978086;28;20054;-83
2022/05/26 06:01:25;;;;;;;0.70;0.40;;;;;;;;;;4988984;28;20095;-81
2022/05/26 06:03:51;;;;;;;0.85;0.40;;;;;;;;;;4995860;28;20037;-82
2022/05/26 06:06:17;;;;;;;0.77;0.40;;;;;;;;;;4994972;28;20560;-82
2022/05/26 06:08:42;;;;;;;0.70;0.30;;;;;;;;;;4995694;28;20030;-83
2022/05/26 06:11:08;;;;;;;1.00;0.40;;;;;;;;;;4979750;28;20058;-82
2022/05/26 06:13:33;;;;;;;0.80;0.30;;;;;;;;;;4994739;28;20034;-82
2022/05/26 06:15:59;;;;;;;2.20;0.77;;;;;;;;;;4993984;28;20095;-83
2022/05/26 06:18:25;;;;;;;1.02;0.50;;;;;;;;;;4987687;28;21024;-82
2022/05/26 06:20:50;;;;;;;1.20;0.50;;;;;;;;;;4996378;28;20037;-82
2022/05/26 06:23:19;;;;;;;1.75;0.60;;;;;;;;;;4979156;28;20037;-81
2022/05/26 06:25:44;;;;;;;0.88;0.45;;;;;;;;;;4980888;28;20496;-82
2022/05/26 06:30:53;;;;;;;1.80;0.80;;;;;;;;;;4995413;28;20133;-83
2022/05/26 06:38:46;;;;;;;3.50;0.93;;;;;;;;;;4992946;28;20041;-81
2022/05/26 06:43:58;;;;;;;0.75;0.45;;;;;;;;;;4997683;28;20037;-81
2022/05/26 06:46:24;;;;;;;1.25;0.40;;;;;;;;;;4991502;28;20038;-81
2022/05/26 06:48:50;;;;;;;1.13;0.50;;;;;;;;;;4981885;28;20039;-82
2022/05/26 06:51:15;;;;;;;1.58;0.52;;;;;;;;;;4993053;28;20038;-80
2022/05/26 06:53:41;;;;;;;1.25;0.45;;;;;;;;;;4993388;28;20038;-82
2022/05/26 06:56:06;;;;;;;1.20;0.50;;;;;;;;;;4993430;28;20105;-82
2022/05/26 06:58:32;;;;;;;1.08;0.50;;;;;;;;;;4996814;28;20034;-80
2022/05/26 07:00:57;;;;;;;1.08;0.40;;;;;;;;;;4981028;28;20121;-83
2022/05/26 07:03:23;;;;;;;0.50;0.32;;;;;;;;;;4983225;28;20042;-82
2022/05/26 07:05:50;;;;;;;2.50;0.65;;;;;;;;;;4993139;28;20061;-83
2022/05/26 07:08:16;;;;;;;0.68;0.40;;;;;;;;;;4995163;28;20109;-81
2022/05/26 07:10:41;;;;;;;0.82;0.50;;;;;;;;;;4976285;28;20035;-82
2022/05/26 07:13:06;;;;;;;1.02;0.50;;;;;;;;;;4993768;28;20528;-83
2022/05/26 07:15:33;;;;;;;1.40;0.60;;;;;;;;;;4991728;28;20035;-82
2022/05/26 07:17:58;;;;;;;0.57;0.30;;;;;;;;;;4992657;28;20029;-82
2022/05/26 07:20:23;;;;;;;2.15;0.85;;;;;;;;;;4986661;28;20061;-82
2022/05/26 07:22:49;;;;;;;0.80;0.40;;;;;;;;;;4994334;28;20556;-82
2022/05/26 07:25:15;;;;;;;2.38;0.60;;;;;;;;;;4992102;28;20105;-82
2022/05/26 07:27:42;;;;;;;1.83;0.70;;;;;;;;;;4987565;28;20062;-84
2022/05/26 07:30:10;;;;;;;1.05;0.40;;;;;;;;;;4972860;28;20070;-82
2022/05/26 07:32:35;;;;;;;1.90;1.02;;;;;;;;;;4998126;28;20501;-82
2022/05/26 07:35:00;;;;;;;1.13;0.55;;;;;;;;;;4979616;28;20091;-81
2022/05/26 07:42:55;;;;;;;1.02;0.52;;;;;;;;;;4992066;28;20036;-81
2022/05/26 07:45:21;;;;;;;1.95;0.82;;;;;;;;;;4991541;28;20102;-82
2022/05/26 07:47:47;;;;;;;1.92;0.90;;;;;;;;;;4993053;28;20480;-80
2022/05/26 07:50:19;;;;;;;1.52;0.77;;;;;;;;;;4984506;28;20121;-83
2022/05/26 07:52:46;;;;;;;1.73;0.70;;;;;;;;;;5002075;28;20070;-81
2022/05/26 07:55:11;;;;;;;1.87;0.87;;;;;;;;;;4995247;28;20389;-81
2022/05/26 07:57:39;;;;;;;1.80;0.70;;;;;;;;;;4973075;28;20088;-81
2022/05/26 08:00:05;;;;;;;1.05;0.60;;;;;;;;;;4984960;28;20039;-82
2022/05/26 08:02:30;;;;;;;2.50;1.27;;;;;;;;;;4996651;28;20067;-81
2022/05/26 08:04:56;;;;;;;2.08;1.00;;;;;;;;;;4979465;28;20034;-81
2022/05/26 08:07:23;;;;;;;2.20;1.00;;;;;;;;;;4994576;28;20653;-81
2022/05/26 08:09:49;;;;;;;2.22;1.00;;;;;;;;;;4995779;28;20042;-82
2022/05/26 08:12:15;;;;;;;2.15;1.17;;;;;;;;;;4979270;28;20401;-80
2022/05/26 08:14:42;;;;;;;3.80;0.98;;;;;;;;;;4992065;28;20034;-80
2022/05/26 08:17:08;;;;;;;3.58;1.50;;;;;;;;;;4991694;28;20038;-81
2022/05/26 08:19:34;;;;;;;1.42;0.73;;;;;;;;;;4992144;28;20050;-80
2022/05/26 08:21:59;;;;;;;2.88;1.23;;;;;;;;;;4996237;28;20041;-82
2022/05/26 08:24:25;;;;;;;1.67;0.70;;;;;;;;;;4979800;28;20042;-81
2022/05/26 08:26:51;;;;;;;2.30;0.95;;;;;;;;;;4991298;28;20046;-83
2022/05/26 08:29:16;;;;;;;1.83;0.85;;;;;;;;;;4979196;28;20168;-84
2022/05/26 08:31:42;;;;;;;1.05;0.60;;;;;;;;;;4991294;28;20445;-81
2022/05/26 08:34:07;;;;;;;1.48;0.50;;;;;;;;;;4991392;28;20042;-82
2022/05/26 08:36:36;;;;;;;1.30;0.52;;;;;;;;;;4991936;28;20088;-82
2022/05/26 08:39:04;;;;;;;0.95;0.60;;;;;;;;;;4995193;28;20513;-82
2022/05/26 08:41:35;;;;;;;1.70;0.75;;;;;;;;;;4992377;28;20034;-82
2022/05/26 08:44:24;;;;;;;0.85;0.40;;;;;;;;;;4994802;28;20034;-82
2022/05/26 08:46:54;;;;;;;1.58;0.60;;;;;;;;;;5006681;28;20037;-82
2022/05/26 08:49:34;;;;;;;1.38;0.60;;;;;;;;;;4992119;28;20521;-82
2022/05/26 08:52:15;;;;;;;1.00;0.40;;;;;;;;;;4976575;28;20034;-83
2022/05/26 08:54:47;;;;;;;1.20;0.65;;;;;;;;;;4984956;28;20057;-80
2022/05/26 08:57:28;;;;;;;0.80;0.30;;;;;;;;;;4984953;28;20502;-81
2022/05/26 08:59:54;;;;;;;0.73;0.30;;;;;;;;;;4965353;28;20834;-83
2022/05/26 09:02:26;;;;;;;0.70;0.30;;;;;;;;;;4983116;28;20038;-83
2022/05/26 09:04:54;;;;;;;0.55;0.30;;;;;;;;;;4991785;28;20041;-84
2022/05/26 09:12:59;;;;;;;1.30;0.30;;;;;;;;;;4991996;28;20428;-83
2022/05/26 09:15:26;;;;;;;0.40;0.22;;;;;;;;;;4991290;28;20096;-81
2022/05/26 09:17:51;;;;;;;0.50;0.20;;;;;;;;;;4984581;28;20563;-83
2022/05/26 09:20:28;;;;;;;0.50;0.20;;;;;;;;;;4980153;28;20045;-84
2022/05/26 09:22:54;;;;;;;1.02;0.20;;;;;;;;;;4974079;28;20509;-82
2022/05/26 09:25:48;;;;;;;0.20;0.10;;;;;;;;;;4966235;28;20101;-80
2022/05/26 09:28:26;;;;;;;0.28;0.10;;;;;;;;;;4984910;28;20493;-81
2022/05/26 09:30:52;;;;;;;0.70;0.32;;;;;;;;;;4979468;28;20356;-82
2022/05/26 09:33:20;;;;;;;1.05;0.30;;;;;;;;;;5001920;28;20208;-81
2022/05/26 09:35:46;;;;;;;0.93;0.38;;;;;;;;;;4990506;28;20049;-82
2022/05/26 09:38:17;;;;;;;1.17;0.30;;;;;;;;;;4978252;28;20381;-81
2022/05/26 09:40:46;;;;;;;1.23;0.47;;;;;;;;;;4977438;28;20030;-82
2022/05/26 09:43:17;;;;;;;0.77;0.30;;;;;;;;;;4984731;28;20045;-80
2022/05/26 09:45:47;;;;;;;0.32;0.20;;;;;;;;;;4994237;28;20041;-83
2022/05/26 09:48:24;;;;;;;0.38;0.32;;;;;;;;;;4984518;28;20033;-81
2022/05/26 09:50:53;;;;;;;0.25;0.10;;;;;;;;;;5006901;28;20038;-82
2022/05/26 09:53:31;;;;;;;0.93;0.30;;;;;;;;;;4978091;28;20044;-81
2022/05/26 09:55:56;;;;;;;0.40;0.20;;;;;;;;;;4964970;28;20113;-82
2022/05/26 09:58:30;;;;;;;0.60;0.28;;;;;;;;;;4965954;28;20031;-84
2022/05/26 10:01:00;;;;;;;0.93;0.25;;;;;;;;;;4980415;28;20509;-84
2022/05/26 10:03:33;;;;;;;0.68;0.15;;;;;;;;;;4985842;28;20517;-84
2022/05/26 10:06:01;;;;;;;1.52;0.63;;;;;;;;;;4980729;28;20030;-82
2022/05/26 10:08:38;;;;;;;0.25;0.10;;;;;;;;;;4990551;28;20035;-85
2022/05/26 10:11:19;;;;;;;1.17;0.25;;;;;;;;;;4970896;28;20515;-86
2022/05/26 10:14:06;;;;;;;0.60;0.22;;;;;;;;;;4995856;28;20531;-86
2022/05/26 10:16:34;;;;;;;0.45;0.20;;;;;;;;;;4971831;28;20038;-87
2022/05/26 10:19:13;;;;;;;0.65;0.20;;;;;;;;;;4995884;28;20049;-87
2022/05/26 10:22:00;;;;;;;0.30;0.20;;;;;;;;;;4989357;28;20061;-85
2022/05/26 10:24:41;;;;;;;0.80;0.40;;;;;;;;;;4978063;28;20494;-85
2022/05/26 10:27:09;;;;;;;1.88;0.35;;;;;;;;;;4996136;28;20041;-84
2022/05/26 10:29:57;;;;;;;0.55;0.28;;;;;;;;;;5005951;28;20370;-87
2022/05/26 10:32:36;;;;;;;0.95;0.40;;;;;;;;;;4988283;28;20030;-86
2022/05/26 10:35:20;;;;;;;1.10;0.40;;;;;;;;;;4998061;28;20358;-85
2022/05/26 10:37:48;;;;;;;0.52;0.30;;;;;;;;;;4997685;28;20095;-85
2022/05/26 10:40:32;;;;;;;0.80;0.30;;;;;;;;;;4994155;28;20039;-86
2022/05/26 10:43:01;;;;;;;1.45;0.70;;;;;;;;;;4997601;28;20442;-88
2022/05/26 10:45:33;;;;;;;0.50;0.30;;;;;;;;;;4970354;28;20080;-86
2022/05/26 10:48:03;;;;;;;0.82;0.38;;;;;;;;;;4988289;28;20087;-85
2022/05/26 10:50:46;;;;;;;0.85;0.47;;;;;;;;;;4964527;28;20449;-85
2022/05/26 10:53:18;;;;;;;1.63;0.60;;;;;;;;;;4988810;28;20124;-86
2022/05/26 10:56:36;;;;;;;1.10;0.30;;;;;;;;;;4997030;28;20143;-86
2022/05/26 10:59:24;;;;;;;0.77;0.35;;;;;;;;;;4987449;28;20034;-85
2022/05/26 11:02:08;;;;;;;1.23;0.40;;;;;;;;;;4990909;28;20037;-86
2022/05/26 11:04:43;;;;;;;1.23;0.40;;;;;;;;;;4982241;28;20078;-86
2022/05/26 11:07:17;;;;;;;0.85;0.28;;;;;;;;;;4994743;28;20030;-85
2022/05/26 11:09:55;;;;;;;1.00;0.50;;;;;;;;;;4994327;28;20038;-86
2022/05/26 11:12:32;;;;;;;0.93;0.40;;;;;;;;;;4992294;28;20094;-86
2022/05/26 11:18:27;;;;;;;0.60;0.38;;;;;;;;;;4993268;28;20041;-87
2022/05/26 11:20:57;;;;;;;;;;;;;;;;;;4973341;28;20057;-87
2022/05/26 11:23:25;;;;;;;1.42;0.50;;;;;;;;;;4990732;28;20401;-86
2022/05/26 11:26:04;;;;;;;0.93;0.40;;;;;;;;;;4980075;28;20073;-86
2022/05/26 11:29:00;;;;;;;0.70;0.30;;;;;;;;;;4979223;28;20042;-85
2022/05/26 11:37:31;;;;;;;1.05;0.40;;;;;;;;;;4992196;28;20037;-85
2022/05/26 11:40:01;;;;;;;0.63;0.30;;;;;;;;;;4988247;28;20042;-86
2022/05/26 11:42:52;;;;;;;1.80;0.50;;;;;;;;;;4993305;28;20032;-86
2022/05/26 11:45:20;;;;;;;2.90;0.60;;;;;;;;;;4996194;28;20564;-87
2022/05/26 11:48:30;;;;;;;1.50;0.60;;;;;;;;;;4978511;28;20038;-85
2022/05/26 11:50:57;;;;;;;0.80;0.40;;;;;;;;;;4991522;28;20136;-85
2022/05/26 11:53:28;;;;;;;0.90;0.50;;;;;;;;;;4995590;28;20047;-85
2022/05/26 11:55:58;;;;;;;1.30;0.70;;;;;;;;;;5007368;28;20383;-87
2022/05/26 11:58:30;;;;;;;1.52;0.60;;;;;;;;;;4985822;28;20088;-83
2022/05/26 12:01:11;;;;;;;1.00;0.38;;;;;;;;;;4992962;28;20050;-82
2022/05/26 12:03:53;;;;;;;1.13;0.47;;;;;;;;;;4996304;28;20034;-82
2022/05/26 12:06:43;;;;;;;1.45;0.65;;;;;;;;;;4997289;28;20049;-83
2022/05/26 12:09:46;;;;;;;1.48;0.40;;;;;;;;;;4967378;28;20042;-82
2022/05/26 12:12:17;;;;;;;1.30;0.40;;;;;;;;;;4995480;28;20042;-80
2022/05/26 12:14:59;;;;;;;0.75;0.38;;;;;;;;;;5008563;28;20060;-82
2022/05/26 12:17:41;;;;;;;1.17;0.50;;;;;;;;;;4985066;28;20477;-82
2022/05/26 12:20:12;;;;;;;1.85;0.50;;;;;;;;;;4991939;28;20053;-83
2022/05/26 12:23:03;;;;;;;1.42;0.57;;;;;;;;;;4998154;28;20491;-81
2022/05/26 12:25:41;;;;;;;2.15;0.43;;;;;;;;;;4991067;28;20062;-82
2022/05/26 12:28:09;;;;;;;1.05;0.38;;;;;;;;;;4992730;28;20058;-83
2022/05/26 12:30:44;;;;;;;1.55;0.50;;;;;;;;;;5002114;28;20030;-81
2022/05/26 12:33:18;;;;;;;1.17;0.52;;;;;;;;;;5001863;28;20390;-81
2022/05/26 12:36:09;;;;;;;2.05;0.65;;;;;;;;;;5001094;28;20568;-81
2022/05/26 12:38:43;;;;;;;1.92;0.73;;;;;;;;;;4997020;28;20122;-81
2022/05/26 12:41:42;;;;;;;1.38;0.50;;;;;;;;;;4996975;28;20121;-83
2022/05/26 12:44:31;;;;;;;1.40;0.63;;;;;;;;;;4990624;28;20045;-82
2022/05/26 12:47:07;;;;;;;1.15;0.50;;;;;;;;;;4983766;28;20037;-82
2022/05/26 12:49:50;;;;;;;2.10;0.73;;;;;;;;;;5001412;28;20038;-82
2022/05/26 12:52:20;;;;;;;0.90;0.40;;;;;;;;;;4997172;28;20896;-82
2022/05/26 12:54:53;;;;;;;1.08;0.50;;;;;;;;;;5000827;28;20049;-82
2022/05/26 12:57:22;;;;;;;2.28;0.65;;;;;;;;;;4999379;28;20037;-81
2022/05/26 12:59:48;;;;;;;1.95;0.70;;;;;;;;;;4991489;28;20097;-82
2022/05/26 13:02:14;;;;;;;1.13;0.52;;;;;;;;;;4981631;28;20030;-83
2022/05/26 13:04:39;;;;;;;0.90;0.40;;;;;;;;;;4993772;28;20122;-83
2022/05/26 13:07:06;;;;;;;1.48;0.57;;;;;;;;;;4990513;28;20122;-82
2022/05/26 13:09:42;;;;;;;0.90;0.50;;;;;;;;;;4984863;28;20041;-82
2022/05/26 13:12:08;;;;;;;1.33;0.47;;;;;;;;;;4993479;28;20304;-82
2022/05/26 13:14:46;;;;;;;0.85;0.40;;;;;;;;;;4977987;28;20081;-83
2022/05/26 13:17:17;;;;;;;2.92;0.45;;;;;;;;;;4993733;28;20066;-84
2022/05/26 13:19:48;;;;;;;2.33;0.90;;;;;;;;;;5000006;28;20045;-83
2022/05/26 13:22:16;;;;;;;1.10;0.60;;;;;;;;;;4991846;28;20038;-84
2022/05/26 13:24:53;;;;;;;1.58;0.60;;;;;;;;;;4974184;28;20042;-83
2022/05/26 13:27:18;;;;;;;1.15;0.38;;;;;;;;;;4978460;28;20039;-83
2022/05/26 13:29:46;;;;;;;0.88;0.45;;;;;;;;;;4981313;28;20476;-83
2022/05/26 13:34:59;;;;;;;;;;;;;;;;;;4993758;28;20586;-82
2022/05/26 13:37:29;;;;;;;3.93;0.53;;;;;;;;;;4993039;28;20399;-82
2022/05/26 13:40:22;;;;;;;1.75;0.45;;;;;;;;;;4996056;28;20048;-83
2022/05/26 13:42:49;;;;;;;2.13;0.63;;;;;;;;;;4975043;28;20069;-81
2022/05/26 13:45:23;;;;;;;5.25;0.40;;;;;;;;;;4981498;28;21068;-83
2022/05/26 13:47:50;;;;;;;1.15;0.52;;;;;;;;;;4978728;28;20035;-84
2022/05/26 13:50:27;;;;;;;1.17;0.47;;;;;;;;;;4984934;28;20093;-83
2022/05/26 13:52:52;;;;;;;1.02;0.50;;;;;;;;;;4985161;28;20405;-81
2022/05/26 13:55:20;;;;;;;1.83;0.68;;;;;;;;;;4991099;28;20049;-83
2022/05/26 13:57:48;;;;;;;1.60;0.40;;;;;;;;;;4995779;28;20096;-80
2022/05/26 14:00:29;;;;;;;0.85;0.30;;;;;;;;;;4976038;28;20039;-81
2022/05/26 14:03:01;;;;;;;1.02;0.40;;;;;;;;;;4999475;28;20026;-82
2022/05/26 14:05:38;;;;;;;0.98;0.40;;;;;;;;;;4990514;28;20038;-81
2022/05/26 14:08:09;;;;;;;1.13;0.30;;;;;;;;;;4988512;28;20046;-82
2022/05/26 14:10:37;;;;;;;0.93;0.30;;;;;;;;;;4988072;28;20034;-80
2022/05/26 14:13:10;;;;;;;1.30;0.38;;;;;;;;;;4994692;28;20066;-82
2022/05/26 14:15:41;;;;;;;1.98;0.35;;;;;;;;;;4998697;28;20204;-83
2022/05/26 14:18:37;;;;;;;0.88;0.45;;;;;;;;;;4994404;28;20498;-81
2022/05/26 14:21:14;;;;;;;1.38;0.50;;;;;;;;;;4996004;28;20041;-81
2022/05/26 14:24:06;;;;;;;1.35;0.45;;;;;;;;;;4998775;28;20057;-82
2022/05/26 14:26:39;;;;;;;2.35;0.70;;;;;;;;;;4994217;28;20048;-80
2022/05/26 14:29:16;;;;;;;0.82;0.35;;;;;;;;;;4997567;28;20101;-81
2022/05/26 14:31:56;;;;;;;0.70;0.30;;;;;;;;;;4995353;28;20044;-82
2022/05/26 14:34:29;;;;;;;1.30;0.50;;;;;;;;;;4983287;28;20037;-82
2022/05/26 14:36:54;;;;;;;0.88;0.30;;;;;;;;;;4993928;28;20041;-81
2022/05/26 14:39:19;;;;;;;0.70;0.28;;;;;;;;;;4978832;28;20034;-81
2022/05/26 14:41:44;;;;;;;1.23;0.38;;;;;;;;;;4977407;28;20030;-81
2022/05/26 14:44:11;;;;;;;2.42;0.70;;;;;;;;;;4987241;28;20173;-83
2022/05/26 14:46:36;;;;;;;1.38;0.43;;;;;;;;;;4997744;28;20057;-83
2022/05/26 14:49:02;;;;;;;1.90;0.45;;;;;;;;;;4987398;28;20054;-81
2022/05/26 14:51:30;;;;;;;3.30;0.65;;;;;;;;;;4977565;28;20084;-82
2022/05/26 14:56:42;;;;;;;1.05;0.47;;;;;;;;;;4992922;28;20127;-81
2022/05/26 14:59:07;;;;;;;1.40;0.57;;;;;;;;;;4980326;28;20917;-81
2022/05/26 15:01:32;;;;;;;0.63;0.20;;;;;;;;;;4986046;28;20030;-82
2022/05/26 15:03:59;;;;;;;0.47;0.30;;;;;;;;;;4985860;28;20038;-81
2022/05/26 15:06:26;;;;;;;1.20;0.30;;;;;;;;;;4985381;28;20037;-81
2022/05/26 15:08:51;;;;;;;1.00;0.50;;;;;;;;;;4993744;28;20044;-81
2022/05/26 15:11:18;;;;;;;0.52;0.20;;;;;;;;;;4995259;28;20034;-81
2022/05/26 15:13:45;;;;;;;0.70;0.30;;;;;;;;;;4977210;28;20485;-81
2022/05/26 15:16:12;;;;;;;0.70;0.43;;;;;;;;;;4979231;28;20039;-80
2022/05/26 15:18:39;;;;;;;0.75;0.20;;;;;;;;;;4979454;28;20042;-81
2022/05/26 15:21:04;;;;;;;0.87;0.30;;;;;;;;;;4996293;28;20044;-80
2022/05/26 15:23:29;;;;;;;1.20;0.25;;;;;;;;;;5004228;28;20045;-82
2022/05/26 15:26:13;;;;;;;3.15;0.43;;;;;;;;;;4991677;28;20042;-81
2022/05/26 15:28:47;;;;;;;1.00;0.30;;;;;;;;;;5001299;28;20117;-82
2022/05/26 15:31:13;;;;;;;0.98;0.35;;;;;;;;;;4987053;28;20026;-81
2022/05/26 15:33:38;;;;;;;0.30;0.20;;;;;;;;;;4987021;28;20042;-81
2022/05/26 15:36:06;;;;;;;1.10;0.30;;;;;;;;;;4993658;28;20058;-80
2022/05/26 15:38:43;;;;;;;1.63;0.35;;;;;;;;;;4986122;28;20035;-81
2022/05/26 15:41:10;;;;;;;5.30;0.60;;;;;;;;;;4995890;28;20119;-80
2022/05/26 15:43:36;;;;;;;0.80;0.22;;;;;;;;;;4986815;28;20034;-82
2022/05/26 15:46:05;;;;;;;0.93;0.35;;;;;;;;;;4987162;28;20393;-82
2022/05/26 15:48:32;;;;;;;0.50;0.20;;;;;;;;;;4968422;28;20528;-81
2022/05/26 15:50:57;;;;;;;0.22;0.10;;;;;;;;;;4993601;28;20042;-81